Terminal Aerodrome Forecast
Issued by NWS Topeka, KS

Home | Current Version | Previous Version | Text Only | Print | Product List | Glossary Off
Versions: 1 2 3 4 5 6 7 8 9 10 11 12 13 14 15 16 17 18 19 20 21 22 23 24 25 26 27

278
FTUS43 KTOP 251735
TAFTOP
TAF
KTOP 251735Z 2518/2618 VRB05KT P6SM BKN025
     FM251900 18010KT P6SM SCT035
     FM252300 18010KT P6SM VCTS SCT030CB
     FM260300 15005KT P6SM SCT025 BKN050
      TEMPO 2610/2613 3SM BR=

USA.gov is the U.S. government's official web portal to all federal, state and local government web resources and services.